Fahy, Switzerland
Current Conditions -  °F | °C
As of 3:20 PM on Tuesday 21 Oct 2014 (Local Time) from LSGC Reporting Station
Broken Clouds Broken Clouds  
Wind Chill: 55°   Ceiling: 2200
Heat Index: 55°   Visibility: 6mi
Dew Point: 48°   Wind: 15mph
Humidity: 77%   Direction: 240°WSW
Pressure: 29.97"   Gusts: 29mph
Location:  47.42°N, 6.95°E
Report Text: LSGC 211320Z 24013G25KT 150V270 9999 BKN022 BKN040 13/09 Q1015 WS R24
Loading
Personal Weather Stations






























Interactive Weather Map
Tropical Storm Tracking
New forecast layout! Learn more

10-Day Weather Forecast

Advertisements
Track Severe Weather on mobile